createdAt,value
2023-02-16T00:01:25.416Z,84.21
2023-02-16T00:03:54.435Z,85.38
2023-02-16T00:06:22.931Z,85.51
2023-02-16T00:08:52.612Z,85.05
2023-02-16T00:11:52.274Z,85.37
2023-02-16T00:14:23.359Z,84.70
2023-02-16T00:16:50.919Z,85.20
2023-02-16T00:19:25.044Z,84.85
2023-02-16T00:21:54.844Z,85.64
2023-02-16T00:24:23.045Z,85.12
2023-02-16T00:26:50.263Z,85.82
2023-02-16T00:29:27.320Z,86.34
2023-02-16T00:31:55.864Z,86.30
2023-02-16T00:34:30.647Z,86.75
2023-02-16T00:36:59.202Z,86.37
2023-02-16T00:39:26.981Z,86.85
2023-02-16T00:41:59.890Z,86.95
2023-02-16T00:44:32.669Z,87.30
2023-02-16T00:47:19.828Z,86.72
2023-02-16T00:49:48.365Z,86.71
2023-02-16T00:52:18.501Z,86.88
2023-02-16T00:54:45.682Z,87.29
2023-02-16T00:57:16.617Z,86.62
2023-02-16T00:59:43.942Z,87.16
2023-02-16T01:02:11.292Z,86.67
2023-02-16T01:04:38.523Z,86.37
2023-02-16T01:07:39.160Z,86.35
2023-02-16T01:10:25.433Z,86.97
2023-02-16T01:12:52.437Z,86.64
2023-02-16T01:15:22.626Z,86.49
2023-02-16T01:17:49.775Z,87.07
2023-02-16T01:20:19.396Z,87.38
2023-02-16T01:22:46.565Z,87.30
2023-02-16T01:25:14.773Z,87.26
2023-02-16T01:27:42.270Z,87.01
2023-02-16T01:30:18.159Z,86.87
2023-02-16T01:32:51.308Z,87.15
2023-02-16T01:35:23.238Z,87.00
2023-02-16T01:37:50.513Z,87.01
2023-02-16T01:40:23.026Z,87.21
2023-02-16T01:42:52.284Z,86.99
2023-02-16T01:45:33.698Z,87.88
2023-02-16T01:48:06.984Z,87.51
2023-02-16T01:50:42.667Z,87.23
2023-02-16T01:53:12.861Z,87.04
2023-02-16T01:55:43.730Z,87.81
2023-02-16T01:58:29.592Z,89.52
2023-02-16T02:00:56.754Z,91.10
2023-02-16T02:03:48.837Z,90.90
2023-02-16T02:06:28.160Z,91.20
2023-02-16T02:09:13.705Z,91.73
2023-02-16T02:11:46.654Z,90.75
2023-02-16T02:14:27.620Z,90.80
2023-02-16T02:17:00.215Z,90.30
2023-02-16T02:19:27.823Z,90.88
2023-02-16T02:22:36.169Z,92.56
2023-02-16T02:25:48.473Z,91.06
2023-02-16T02:28:31.352Z,91.14
2023-02-16T02:31:03.346Z,91.45
2023-02-16T02:33:49.375Z,91.02
2023-02-16T02:36:40.680Z,90.99
2023-02-16T02:39:41.312Z,90.73
2023-02-16T02:42:43.756Z,91.01
2023-02-16T02:45:18.958Z,90.76
2023-02-16T02:47:47.966Z,90.64
2023-02-16T02:51:04.790Z,90.40
2023-02-16T02:53:33.756Z,90.89
2023-02-16T02:56:21.756Z,90.21
2023-02-16T02:59:09.386Z,89.41
2023-02-16T03:01:38.097Z,89.28
2023-02-16T03:04:06.315Z,89.21
2023-02-16T03:06:46.796Z,89.16
2023-02-16T03:09:15.334Z,89.70
2023-02-16T03:12:01.726Z,89.56
2023-02-16T03:14:42.005Z,89.97
2023-02-16T03:17:35.053Z,89.16
2023-02-16T03:20:24.685Z,89.31
2023-02-16T03:23:10.293Z,89.36
2023-02-16T03:25:57.878Z,89.97
2023-02-16T03:28:45.884Z,90.19
2023-02-16T03:31:17.943Z,90.18
2023-02-16T03:33:46.076Z,90.02
2023-02-16T03:36:13.471Z,89.96
2023-02-16T03:38:40.805Z,90.65
2023-02-16T03:41:07.977Z,90.37
2023-02-16T03:43:35.180Z,90.19
2023-02-16T03:46:02.387Z,90.59
2023-02-16T03:48:29.605Z,90.91
2023-02-16T03:50:56.765Z,91.21
2023-02-16T03:53:24.429Z,90.98
2023-02-16T03:55:51.616Z,91.17
2023-02-16T03:58:21.007Z,90.81
2023-02-16T04:00:48.935Z,91.02
2023-02-16T04:03:16.405Z,91.58
2023-02-16T04:05:44.315Z,92.02
2023-02-16T04:08:12.022Z,92.39
2023-02-16T04:10:39.508Z,91.74
2023-02-16T04:13:06.762Z,92.25
2023-02-16T04:15:34.310Z,92.04
2023-02-16T04:18:01.968Z,92.33
2023-02-16T04:20:31.430Z,91.90
2023-02-16T04:22:58.924Z,92.68
2023-02-16T04:25:26.483Z,93.10
2023-02-16T04:27:53.978Z,93.12
2023-02-16T04:30:29.694Z,93.38
2023-02-16T04:32:56.856Z,93.59
2023-02-16T04:35:23.992Z,94.79
2023-02-16T04:37:51.205Z,94.39
2023-02-16T04:40:18.722Z,94.56
2023-02-16T04:42:46.218Z,94.76
2023-02-16T04:45:14.079Z,94.22
2023-02-16T04:47:41.479Z,94.84
2023-02-16T04:50:09.153Z,94.68
2023-02-16T04:52:36.820Z,94.97
2023-02-16T04:55:05.703Z,94.91
2023-02-16T04:57:32.921Z,94.64
2023-02-16T05:00:00.208Z,94.50
2023-02-16T05:02:27.393Z,94.14
2023-02-16T05:04:54.621Z,94.33
2023-02-16T05:07:21.778Z,94.45
2023-02-16T05:09:48.938Z,94.95
2023-02-16T05:12:34.879Z,94.71
2023-02-16T05:15:02.030Z,94.10
2023-02-16T05:17:29.177Z,93.74
2023-02-16T05:19:59.222Z,94.02
2023-02-16T05:22:28.893Z,93.95
2023-02-16T05:24:56.120Z,94.32
2023-02-16T05:27:25.382Z,94.71
2023-02-16T05:29:52.663Z,94.90
2023-02-16T05:32:20.408Z,94.73
2023-02-16T05:34:47.987Z,94.64
2023-02-16T05:37:16.574Z,94.41
2023-02-16T05:39:44.228Z,94.39
2023-02-16T05:42:11.503Z,95.28
2023-02-16T05:44:38.755Z,94.60
2023-02-16T05:47:05.937Z,94.15
2023-02-16T05:49:33.073Z,94.38
2023-02-16T05:52:00.172Z,93.96
2023-02-16T05:54:28.064Z,93.82
2023-02-16T05:56:55.652Z,94.02
2023-02-16T05:59:23.012Z,93.99
2023-02-16T06:01:52.230Z,93.82
2023-02-16T06:04:21.115Z,93.73
2023-02-16T06:06:48.410Z,94.41
2023-02-16T06:09:15.634Z,94.25
2023-02-16T06:11:43.240Z,93.96
2023-02-16T06:14:16.421Z,94.69
2023-02-16T06:16:45.856Z,94.74
2023-02-16T06:19:13.442Z,94.99
2023-02-16T06:21:40.819Z,94.76
2023-02-16T06:24:09.514Z,94.64
2023-02-16T06:26:37.276Z,94.28
2023-02-16T06:29:04.970Z,94.40
2023-02-16T06:31:35.830Z,93.97
2023-02-16T06:34:04.175Z,94.36
2023-02-16T06:36:31.637Z,93.92
2023-02-16T06:38:58.900Z,93.90
2023-02-16T06:41:31.973Z,93.45
2023-02-16T06:44:00.684Z,93.70
2023-02-16T06:46:28.171Z,93.44
2023-02-16T06:48:55.756Z,93.30
2023-02-16T06:51:23.225Z,93.45
2023-02-16T06:53:50.464Z,93.67
2023-02-16T06:56:17.770Z,94.17
2023-02-16T06:58:45.065Z,93.63
2023-02-16T07:01:12.566Z,94.27
2023-02-16T07:03:39.953Z,94.32
2023-02-16T07:06:07.225Z,93.83
2023-02-16T07:08:35.683Z,93.50
2023-02-16T07:11:03.396Z,93.14
2023-02-16T07:13:30.720Z,93.12
2023-02-16T07:15:57.942Z,93.52
2023-02-16T07:18:25.083Z,93.08
2023-02-16T07:20:52.325Z,92.93
2023-02-16T07:23:19.501Z,92.49
2023-02-16T07:25:47.264Z,92.34
2023-02-16T07:28:14.572Z,92.36
2023-02-16T07:30:42.237Z,92.27
2023-02-16T07:33:10.139Z,91.99
2023-02-16T07:35:37.532Z,92.40
2023-02-16T07:38:05.844Z,93.25
2023-02-16T07:40:33.141Z,92.84
2023-02-16T07:43:01.389Z,92.34
2023-02-16T07:45:29.071Z,92.37
2023-02-16T07:47:56.282Z,92.21
2023-02-16T07:50:23.466Z,91.51
2023-02-16T07:52:50.659Z,91.96
2023-02-16T07:55:17.948Z,91.77
2023-02-16T07:57:45.114Z,92.35
2023-02-16T08:00:12.449Z,92.29
2023-02-16T08:02:40.492Z,92.40
2023-02-16T08:05:08.073Z,92.16
2023-02-16T08:07:35.671Z,91.90
2023-02-16T08:10:02.891Z,91.57
2023-02-16T08:12:30.216Z,91.82
2023-02-16T08:14:57.835Z,91.89
2023-02-16T08:17:25.289Z,91.74
2023-02-16T08:19:52.476Z,91.50
2023-02-16T08:22:19.722Z,91.53
2023-02-16T08:24:46.882Z,92.16
2023-02-16T08:27:14.066Z,91.62
2023-02-16T08:29:41.946Z,92.22
2023-02-16T08:32:12.989Z,91.85
2023-02-16T08:34:43.235Z,91.44
2023-02-16T08:37:12.590Z,92.08
2023-02-16T08:39:40.572Z,91.71
2023-02-16T08:42:08.418Z,91.36
2023-02-16T08:44:35.790Z,90.96
2023-02-16T08:47:03.756Z,90.48
2023-02-16T08:49:30.989Z,90.36
2023-02-16T08:51:58.762Z,89.75
2023-02-16T08:54:30.177Z,89.51
2023-02-16T08:56:58.973Z,89.55
2023-02-16T08:59:28.857Z,89.39
2023-02-16T09:02:00.217Z,88.74
2023-02-16T09:04:29.093Z,89.25
2023-02-16T09:06:57.947Z,88.79
2023-02-16T09:09:26.314Z,88.13
2023-02-16T09:11:53.589Z,87.59
2023-02-16T09:14:21.470Z,87.24
2023-02-16T09:16:48.952Z,86.08
2023-02-16T09:19:20.566Z,85.93
2023-02-16T09:21:48.573Z,85.58
2023-02-16T09:24:15.977Z,85.65
2023-02-16T09:26:44.611Z,84.48
2023-02-16T09:29:13.818Z,83.87
2023-02-16T09:31:42.242Z,82.92
2023-02-16T09:34:21.762Z,82.45
2023-02-16T09:36:49.722Z,81.58
2023-02-16T09:39:17.316Z,80.54
2023-02-16T09:42:05.124Z,80.04
2023-02-16T09:44:54.776Z,79.65
2023-02-16T09:47:30.996Z,78.85
2023-02-16T09:50:06.352Z,79.11
2023-02-16T09:52:37.761Z,77.99
2023-02-16T09:55:14.721Z,77.68
2023-02-16T09:57:59.081Z,77.49
2023-02-16T10:00:35.896Z,76.73
2023-02-16T10:03:32.324Z,75.58
2023-02-16T10:06:27.641Z,76.95
2023-02-16T10:09:11.451Z,75.58
2023-02-16T10:11:42.060Z,74.78
2023-02-16T10:14:25.624Z,73.12
2023-02-16T10:17:12.345Z,72.88
2023-02-16T10:19:43.855Z,72.54
2023-02-16T10:22:17.337Z,73.55
2023-02-16T10:25:01.719Z,71.06
2023-02-16T10:27:37.835Z,70.69
2023-02-16T10:30:19.902Z,70.62
2023-02-16T10:32:58.236Z,69.45
2023-02-16T10:35:32.692Z,69.68
2023-02-16T10:38:12.954Z,69.28
2023-02-16T10:40:46.708Z,69.83
2023-02-16T10:43:34.115Z,69.09
2023-02-16T10:46:01.830Z,68.34
2023-02-16T10:48:29.255Z,67.37
2023-02-16T10:51:03.709Z,67.91
2023-02-16T10:53:40.119Z,66.15
2023-02-16T10:56:25.885Z,66.39
2023-02-16T10:58:53.294Z,65.34
2023-02-16T11:01:22.444Z,65.30
2023-02-16T11:03:50.659Z,65.11
2023-02-16T11:06:20.498Z,65.77
2023-02-16T11:08:54.219Z,64.97
2023-02-16T11:11:22.889Z,64.91
2023-02-16T11:13:50.575Z,65.15
2023-02-16T11:16:23.017Z,64.15
2023-02-16T11:18:59.296Z,62.59
2023-02-16T11:22:02.312Z,62.80
2023-02-16T11:24:32.079Z,62.77
2023-02-16T11:27:04.165Z,63.00
2023-02-16T11:29:31.588Z,63.42
2023-02-16T11:31:59.738Z,62.46
2023-02-16T11:34:49.691Z,61.46
2023-02-16T11:37:31.898Z,61.84
2023-02-16T11:40:02.029Z,61.32
2023-02-16T11:42:30.188Z,60.98
2023-02-16T11:44:58.408Z,60.40
2023-02-16T11:47:28.565Z,60.21
2023-02-16T11:50:21.004Z,59.59
2023-02-16T11:52:53.900Z,59.39
2023-02-16T11:55:27.310Z,59.00
2023-02-16T11:57:56.512Z,58.72
2023-02-16T12:00:26.622Z,56.50
2023-02-16T12:03:10.162Z,57.83
2023-02-16T12:06:12.130Z,55.85
2023-02-16T12:09:03.063Z,54.60
2023-02-16T12:11:39.614Z,54.14
2023-02-16T12:14:51.668Z,53.99
2023-02-16T12:17:50.027Z,49.57
2023-02-16T12:20:31.972Z,50.38
2023-02-16T12:23:21.870Z,48.59
2023-02-16T12:26:28.422Z,48.32
2023-02-16T12:29:29.597Z,48.39
2023-02-16T12:32:20.827Z,51.12
2023-02-16T12:35:15.869Z,47.16
2023-02-16T12:37:52.337Z,47.64
2023-02-16T12:40:42.856Z,47.34
2023-02-16T12:43:18.606Z,47.17
2023-02-16T12:45:46.428Z,46.78
2023-02-16T12:48:16.391Z,46.87
2023-02-16T12:50:44.330Z,48.25
2023-02-16T12:53:14.581Z,46.93
2023-02-16T12:55:43.089Z,46.52
2023-02-16T12:58:26.478Z,48.57
2023-02-16T13:01:01.017Z,48.04
2023-02-16T13:03:46.543Z,48.32
2023-02-16T13:06:15.755Z,50.59
2023-02-16T13:08:56.155Z,50.30
2023-02-16T13:11:41.477Z,47.67
2023-02-16T13:14:17.082Z,48.03
2023-02-16T13:16:47.342Z,45.59
2023-02-16T13:19:15.475Z,46.72
2023-02-16T13:21:54.457Z,46.88
2023-02-16T13:24:43.068Z,44.83
2023-02-16T13:27:34.817Z,48.03
2023-02-16T13:30:35.375Z,45.47
2023-02-16T13:33:24.425Z,45.29
2023-02-16T13:36:18.957Z,44.66
2023-02-16T13:39:09.226Z,45.47
2023-02-16T13:41:55.567Z,46.81
2023-02-16T13:44:28.587Z,42.25
2023-02-16T13:46:56.349Z,42.37
2023-02-16T13:49:30.007Z,42.55
2023-02-16T13:51:57.933Z,41.88
2023-02-16T13:54:40.435Z,43.33
2023-02-16T13:57:14.457Z,42.58
2023-02-16T13:59:49.969Z,44.37
2023-02-16T14:02:59.320Z,40.57
2023-02-16T14:05:29.574Z,43.16
2023-02-16T14:08:27.504Z,44.26
2023-02-16T14:10:55.268Z,44.38
2023-02-16T14:13:43.198Z,45.81
2023-02-16T14:16:22.443Z,49.18
2023-02-16T14:19:05.190Z,49.07
2023-02-16T14:21:42.842Z,47.90
2023-02-16T14:24:26.056Z,48.86
2023-02-16T14:27:02.826Z,48.04
2023-02-16T14:29:32.753Z,48.67
2023-02-16T14:32:07.220Z,51.16
2023-02-16T14:34:40.998Z,52.82
2023-02-16T14:37:29.618Z,49.30
2023-02-16T14:40:09.608Z,49.09
2023-02-16T14:42:36.783Z,49.91
2023-02-16T14:45:28.557Z,50.16
2023-02-16T14:48:35.792Z,51.09
2023-02-16T14:51:40.352Z,52.32
2023-02-16T14:54:31.702Z,51.35
2023-02-16T14:57:12.727Z,51.47
2023-02-16T14:59:52.669Z,51.69
2023-02-16T15:02:28.447Z,54.11
2023-02-16T15:04:56.188Z,52.07
2023-02-16T15:07:24.623Z,52.93
2023-02-16T15:09:57.276Z,52.64
2023-02-16T15:12:29.457Z,52.53
2023-02-16T15:15:02.753Z,52.70
2023-02-16T15:17:39.363Z,53.84
2023-02-16T15:20:27.610Z,53.17
2023-02-16T15:23:01.174Z,54.26
2023-02-16T15:25:33.927Z,53.96
2023-02-16T15:28:17.691Z,53.20
2023-02-16T15:30:58.977Z,54.36
2023-02-16T15:33:32.834Z,54.38
2023-02-16T15:36:13.465Z,54.10
2023-02-16T15:38:59.005Z,54.28
2023-02-16T15:41:30.133Z,54.48
2023-02-16T15:43:58.586Z,55.40
2023-02-16T15:46:34.482Z,54.64
2023-02-16T15:49:27.555Z,55.47
2023-02-16T15:51:56.592Z,55.12
2023-02-16T15:54:35.597Z,55.33
2023-02-16T15:57:48.021Z,55.60
2023-02-16T16:00:19.388Z,55.88
2023-02-16T16:02:49.226Z,56.34
2023-02-16T16:05:28.275Z,55.73
2023-02-16T16:07:57.178Z,55.75
2023-02-16T16:10:28.540Z,55.70
2023-02-16T16:13:00.907Z,57.39
2023-02-16T16:15:29.425Z,56.81
2023-02-16T16:18:00.815Z,56.03
2023-02-16T16:20:31.188Z,56.27
2023-02-16T16:23:01.751Z,56.96
2023-02-16T16:25:38.931Z,57.14
2023-02-16T16:28:08.141Z,56.76
2023-02-16T16:30:37.076Z,56.96
2023-02-16T16:33:10.241Z,57.32
2023-02-16T16:35:43.270Z,57.13
2023-02-16T16:38:34.857Z,56.96
2023-02-16T16:41:03.438Z,57.24
2023-02-16T16:43:38.355Z,57.50
2023-02-16T16:46:35.011Z,58.16
2023-02-16T16:49:06.223Z,57.56
2023-02-16T16:51:33.400Z,57.48
2023-02-16T16:54:25.136Z,57.45
2023-02-16T16:56:52.457Z,58.06
2023-02-16T16:59:19.783Z,58.47
2023-02-16T17:01:49.945Z,58.73
2023-02-16T17:04:17.161Z,58.98
2023-02-16T17:06:44.357Z,58.98
2023-02-16T17:09:11.549Z,59.17
2023-02-16T17:11:38.816Z,59.48
2023-02-16T17:14:13.296Z,59.47
2023-02-16T17:16:43.293Z,59.12
2023-02-16T17:19:14.911Z,59.25
2023-02-16T17:21:42.854Z,60.03
2023-02-16T17:24:12.538Z,60.84
2023-02-16T17:26:40.233Z,59.91
2023-02-16T17:29:08.253Z,59.91
2023-02-16T17:31:35.798Z,60.80
2023-02-16T17:34:03.154Z,60.64
2023-02-16T17:36:30.310Z,60.96
2023-02-16T17:38:57.938Z,60.67
2023-02-16T17:41:29.398Z,61.83
2023-02-16T17:43:57.019Z,61.39
2023-02-16T17:46:25.468Z,60.78
2023-02-16T17:48:55.316Z,60.99
2023-02-16T17:51:24.503Z,61.01
2023-02-16T17:53:51.772Z,61.69
2023-02-16T17:56:20.949Z,61.32
2023-02-16T17:58:48.489Z,61.75
2023-02-16T18:01:16.835Z,60.92
2023-02-16T18:03:44.330Z,61.83
2023-02-16T18:06:16.850Z,61.84
2023-02-16T18:08:44.909Z,62.59
2023-02-16T18:11:12.796Z,62.81
2023-02-16T18:13:40.145Z,62.04
2023-02-16T18:16:07.961Z,62.46
2023-02-16T18:18:38.921Z,62.63
2023-02-16T18:21:06.521Z,62.73
2023-02-16T18:23:33.961Z,63.24
2023-02-16T18:26:01.150Z,63.31
2023-02-16T18:28:33.288Z,63.04
2023-02-16T18:31:01.028Z,63.27
2023-02-16T18:33:28.313Z,63.68
2023-02-16T18:35:57.429Z,63.87
2023-02-16T18:38:25.295Z,63.94
2023-02-16T18:40:54.081Z,63.83
2023-02-16T18:43:22.132Z,64.28
2023-02-16T18:45:49.833Z,64.15
2023-02-16T18:48:17.112Z,64.31
2023-02-16T18:50:44.775Z,64.42
2023-02-16T18:53:12.000Z,64.64
2023-02-16T18:55:39.466Z,64.68
2023-02-16T18:58:08.232Z,64.56
2023-02-16T19:00:36.765Z,64.31
2023-02-16T19:03:04.301Z,64.44
2023-02-16T19:05:32.274Z,64.88
2023-02-16T19:07:59.557Z,64.64
2023-02-16T19:10:27.400Z,64.93
2023-02-16T19:12:54.606Z,65.17
2023-02-16T19:15:22.145Z,65.02
2023-02-16T19:17:49.320Z,64.92
2023-02-16T19:20:18.555Z,65.08
2023-02-16T19:22:46.511Z,65.31
2023-02-16T19:25:14.328Z,65.13
2023-02-16T19:27:41.681Z,65.18
2023-02-16T19:30:09.213Z,64.83
2023-02-16T19:32:36.810Z,64.72
2023-02-16T19:35:04.262Z,65.00
2023-02-16T19:37:31.455Z,64.77
2023-02-16T19:39:58.570Z,65.44
2023-02-16T19:42:26.094Z,64.89
2023-02-16T19:44:53.225Z,65.11
2023-02-16T19:47:20.428Z,65.70
2023-02-16T19:49:47.602Z,65.33
2023-02-16T19:52:14.743Z,65.39
2023-02-16T19:54:41.948Z,65.23
2023-02-16T19:57:09.231Z,64.91
2023-02-16T19:59:36.444Z,64.94
2023-02-16T20:02:03.790Z,65.04
2023-02-16T20:04:30.938Z,65.46
2023-02-16T20:06:58.266Z,65.16
2023-02-16T20:09:25.429Z,65.33
2023-02-16T20:11:52.612Z,65.62
2023-02-16T20:14:19.817Z,65.68
2023-02-16T20:16:47.826Z,65.92
2023-02-16T20:19:14.990Z,65.32
2023-02-16T20:21:44.146Z,65.38
2023-02-16T20:24:11.521Z,65.14
2023-02-16T20:26:41.420Z,65.62
2023-02-16T20:29:11.467Z,65.81
2023-02-16T20:31:49.249Z,66.05
2023-02-16T20:34:16.512Z,65.38
2023-02-16T20:36:44.281Z,65.59
2023-02-16T20:39:11.474Z,65.95
2023-02-16T20:41:39.160Z,65.18
2023-02-16T20:44:06.801Z,65.83
2023-02-16T20:46:34.361Z,65.97
2023-02-16T20:49:01.600Z,65.93
2023-02-16T20:51:28.756Z,66.61
2023-02-16T20:53:56.197Z,66.50
2023-02-16T20:56:24.779Z,67.03
2023-02-16T20:58:53.917Z,66.94
2023-02-16T21:01:28.589Z,67.63
2023-02-16T21:03:57.141Z,67.57
2023-02-16T21:06:24.663Z,67.79
2023-02-16T21:08:51.905Z,68.67
2023-02-16T21:11:19.358Z,68.16
2023-02-16T21:13:46.858Z,68.18
2023-02-16T21:16:14.868Z,68.88
2023-02-16T21:18:42.306Z,69.20
2023-02-16T21:21:12.224Z,68.94
2023-02-16T21:23:39.349Z,69.40
2023-02-16T21:26:06.760Z,69.93
2023-02-16T21:28:34.234Z,69.62
2023-02-16T21:31:10.804Z,69.72
2023-02-16T21:33:38.282Z,69.48
2023-02-16T21:36:14.652Z,70.03
2023-02-16T21:38:42.125Z,69.73
2023-02-16T21:41:25.662Z,69.92
2023-02-16T21:44:03.253Z,70.55
2023-02-16T21:46:33.556Z,70.70
2023-02-16T21:49:00.793Z,70.43
2023-02-16T21:51:34.029Z,71.03
2023-02-16T21:54:01.410Z,71.11
2023-02-16T21:56:39.971Z,70.99
2023-02-16T21:59:09.380Z,71.30
2023-02-16T22:01:39.521Z,71.39
2023-02-16T22:04:06.855Z,72.05
2023-02-16T22:06:37.430Z,72.50
2023-02-16T22:09:07.151Z,72.43
2023-02-16T22:11:34.361Z,71.79
2023-02-16T22:14:02.820Z,72.87
2023-02-16T22:16:32.095Z,72.71
2023-02-16T22:19:01.584Z,73.10
2023-02-16T22:21:29.600Z,73.46
2023-02-16T22:23:57.357Z,72.67
2023-02-16T22:26:28.633Z,73.29
2023-02-16T22:28:56.225Z,73.38
2023-02-16T22:31:25.489Z,72.86
2023-02-16T22:34:00.453Z,74.15
2023-02-16T22:36:28.153Z,74.35
2023-02-16T22:38:55.530Z,73.88
2023-02-16T22:41:23.598Z,74.72
2023-02-16T22:43:55.058Z,75.65
2023-02-16T22:46:23.278Z,75.18
2023-02-16T22:48:50.980Z,74.94
2023-02-16T22:51:19.554Z,74.27
2023-02-16T22:53:47.337Z,75.63
2023-02-16T22:56:16.398Z,75.48
2023-02-16T22:58:44.173Z,75.29
2023-02-16T23:01:14.877Z,75.72
2023-02-16T23:03:42.705Z,76.11
2023-02-16T23:06:19.295Z,76.18
2023-02-16T23:08:47.132Z,77.24
2023-02-16T23:11:14.367Z,77.63
2023-02-16T23:13:41.535Z,78.25
2023-02-16T23:16:12.398Z,77.71
2023-02-16T23:18:39.972Z,77.94
2023-02-16T23:21:23.142Z,78.07
2023-02-16T23:23:51.721Z,78.15
2023-02-16T23:26:20.298Z,78.13
2023-02-16T23:28:54.242Z,77.95
2023-02-16T23:31:22.064Z,77.96
2023-02-16T23:33:49.453Z,77.77
2023-02-16T23:36:16.966Z,78.84
2023-02-16T23:38:44.165Z,78.05
2023-02-16T23:41:13.476Z,79.32
2023-02-16T23:43:40.945Z,79.72
2023-02-16T23:46:09.529Z,80.06
2023-02-16T23:48:38.122Z,80.19
2023-02-16T23:51:05.800Z,79.70
2023-02-16T23:53:33.291Z,80.50
2023-02-16T23:56:01.531Z,81.06
2023-02-16T23:58:30.393Z,80.97
